Time;durP1;ratioP1;P1;durP2;ratioP2;P2;SDS_P1;SDS_P2;PMS_P1;PMS_P2;Temp;Humidity;BMP_temperature;BMP_pressure;BME280_temperature;BME280_humidity;BME280_pressure;Samples;Min_cycle;Max_cycle;Signal;HPM_P1;HPM_P2
2022/11/22 00:02:13;;;;;;;22.05;7.38;;;3.60;99.90;;;;;;4890913;29;20479;-72
2022/11/22 00:04:38;;;;;;;20.27;7.75;;;3.50;99.90;;;;;;4887540;29;20049;-72
2022/11/22 00:07:04;;;;;;;16.02;6.75;;;3.50;99.90;;;;;;4893324;29;20048;-72
2022/11/22 00:09:30;;;;;;;19.88;7.22;;;3.50;99.90;;;;;;4889530;29;20056;-73
2022/11/22 00:11:56;;;;;;;18.15;6.93;;;3.50;99.90;;;;;;4905994;29;20056;-72
2022/11/22 00:14:21;;;;;;;19.55;8.02;;;3.50;99.90;;;;;;4891196;29;20044;-72
2022/11/22 00:16:47;;;;;;;18.70;7.75;;;3.50;99.90;;;;;;4900691;29;20068;-72
2022/11/22 00:19:13;;;;;;;19.95;7.30;;;3.50;99.90;;;;;;4893142;29;20393;-72
2022/11/22 00:21:39;;;;;;;17.30;7.55;;;3.60;99.90;;;;;;4895221;29;20052;-72
2022/11/22 00:24:05;;;;;;;17.08;7.82;;;3.60;99.90;;;;;;4894362;29;20502;-73
2022/11/22 00:26:30;;;;;;;19.35;7.85;;;3.60;99.90;;;;;;4894124;29;20165;-75
2022/11/22 00:28:56;;;;;;;19.73;7.07;;;3.60;99.90;;;;;;4894749;29;20140;-72
2022/11/22 00:31:22;;;;;;;22.02;8.65;;;3.60;99.90;;;;;;4895250;29;20049;-72
2022/11/22 00:33:47;;;;;;;22.05;7.95;;;3.60;99.90;;;;;;4891653;29;20048;-72
2022/11/22 00:36:15;;;;;;;17.90;7.70;;;3.60;99.90;;;;;;4877233;29;20141;-73
2022/11/22 00:38:42;;;;;;;18.33;7.88;;;3.50;99.90;;;;;;4890903;29;20052;-73
2022/11/22 00:41:08;;;;;;;21.15;7.97;;;3.60;99.90;;;;;;4874746;29;20057;-72
2022/11/22 00:43:34;;;;;;;21.90;8.13;;;3.60;99.90;;;;;;4891454;29;20379;-72
2022/11/22 00:46:00;;;;;;;17.33;7.35;;;3.50;99.90;;;;;;4894761;29;20101;-72
2022/11/22 00:48:25;;;;;;;17.15;7.22;;;3.50;99.90;;;;;;4899422;29;20052;-72
2022/11/22 00:50:51;;;;;;;19.30;7.07;;;3.50;99.90;;;;;;4891976;29;20112;-72
2022/11/22 00:53:17;;;;;;;17.85;7.68;;;3.50;99.90;;;;;;4888790;29;20060;-72
2022/11/22 00:55:44;;;;;;;21.58;6.70;;;3.60;99.90;;;;;;4896621;29;20521;-73
2022/11/22 00:58:10;;;;;;;17.33;7.40;;;3.60;99.90;;;;;;4896713;29;20143;-72
2022/11/22 01:00:35;;;;;;;21.23;8.13;;;3.50;99.90;;;;;;4898777;29;20531;-72
2022/11/22 01:03:01;;;;;;;18.45;7.38;;;3.50;99.90;;;;;;4898590;29;20044;-72
2022/11/22 01:05:27;;;;;;;20.00;7.68;;;3.60;99.90;;;;;;4910355;29;20132;-72
2022/11/22 01:07:53;;;;;;;16.48;7.97;;;3.60;99.90;;;;;;4878692;29;20049;-72
2022/11/22 01:10:18;;;;;;;22.13;8.23;;;3.50;99.90;;;;;;4881402;29;20463;-72
2022/11/22 01:12:44;;;;;;;22.77;8.38;;;3.50;99.90;;;;;;4897739;29;20053;-73
2022/11/22 01:15:10;;;;;;;22.80;8.52;;;3.50;99.90;;;;;;4898067;29;20143;-73
2022/11/22 01:17:36;;;;;;;20.52;7.93;;;3.50;99.90;;;;;;4898897;29;20406;-73
2022/11/22 01:20:02;;;;;;;20.52;7.47;;;3.50;99.90;;;;;;4897311;29;20060;-74
2022/11/22 01:22:28;;;;;;;;;;;3.50;99.90;;;;;;4898846;29;20058;-72
2022/11/22 01:24:53;;;;;;;18.02;6.97;;;3.50;99.90;;;;;;4896144;29;19923;-73
2022/11/22 01:27:19;;;;;;;20.35;8.48;;;3.60;99.90;;;;;;4897741;29;20104;-72
2022/11/22 01:29:45;;;;;;;17.70;7.82;;;3.80;99.90;;;;;;4883215;29;20522;-72
2022/11/22 01:32:10;;;;;;;18.30;7.22;;;3.60;99.90;;;;;;4879297;29;20061;-76
2022/11/22 01:34:36;;;;;;;21.50;7.60;;;4.00;99.90;;;;;;4879333;29;20057;-72
2022/11/22 01:37:02;;;;;;;18.27;8.10;;;3.60;99.90;;;;;;4896283;29;20486;-72
2022/11/22 01:39:27;;;;;;;18.38;7.75;;;3.60;99.90;;;;;;4898224;29;20048;-72
2022/11/22 01:41:53;;;;;;;19.02;7.22;;;4.00;99.90;;;;;;4880732;29;20048;-73
2022/11/22 01:44:31;;;;;;;17.35;7.35;;;3.60;99.90;;;;;;4880656;29;20210;-73
2022/11/22 01:47:05;;;;;;;26.63;8.18;;;3.60;99.90;;;;;;4878923;29;20503;-72
2022/11/22 01:49:34;;;;;;;19.13;6.65;;;3.70;99.90;;;;;;4877798;29;20106;-73
2022/11/22 01:52:09;;;;;;;21.52;7.93;;;3.70;99.90;;;;;;4882230;29;20113;-77
2022/11/22 01:54:39;;;;;;;27.52;7.85;;;3.70;99.90;;;;;;4862580;29;20056;-72
2022/11/22 01:57:09;;;;;;;22.08;8.02;;;3.70;99.90;;;;;;4892154;29;20456;-73
2022/11/22 01:59:38;;;;;;;16.25;7.30;;;3.70;99.90;;;;;;4886766;29;20057;-72
2022/11/22 02:02:05;;;;;;;22.10;8.02;;;3.70;99.90;;;;;;4894338;29;20088;-72
2022/11/22 02:04:32;;;;;;;19.52;6.80;;;3.80;99.90;;;;;;4897110;29;20048;-73
2022/11/22 02:07:13;;;;;;;19.48;7.95;;;3.80;99.90;;;;;;4896048;29;20458;-73
2022/11/22 02:09:41;;;;;;;21.23;7.93;;;3.80;99.90;;;;;;4891109;29;20402;-72
2022/11/22 02:12:08;;;;;;;17.63;7.07;;;3.80;99.90;;;;;;4878985;29;20088;-72
2022/11/22 02:14:35;;;;;;;17.90;7.18;;;3.80;99.90;;;;;;4879187;29;20049;-73
2022/11/22 02:17:01;;;;;;;19.55;8.88;;;3.80;99.90;;;;;;4880708;29;20048;-73
2022/11/22 02:19:43;;;;;;;20.50;7.63;;;3.80;99.90;;;;;;4911109;29;20131;-70
2022/11/22 02:22:34;;;;;;;19.48;7.28;;;3.80;99.90;;;;;;4896808;29;20426;-71
2022/11/22 02:25:21;;;;;;;19.95;7.88;;;3.80;99.90;;;;;;4893222;29;20124;-70
2022/11/22 02:27:48;;;;;;;19.27;8.07;;;3.80;99.90;;;;;;4893560;29;20158;-70
2022/11/22 02:30:14;;;;;;;16.65;7.43;;;3.80;99.90;;;;;;4876757;29;20095;-71
2022/11/22 02:32:40;;;;;;;;;;;3.80;99.90;;;;;;4878516;29;20088;-71
2022/11/22 02:35:32;;;;;;;18.45;6.95;;;3.80;99.90;;;;;;4893439;29;19981;-75
2022/11/22 02:38:02;;;;;;;17.38;8.38;;;3.90;99.90;;;;;;4893281;29;20156;-70
2022/11/22 02:40:34;;;;;;;17.45;6.97;;;3.80;99.90;;;;;;4893050;29;20057;-70
2022/11/22 02:43:03;;;;;;;22.77;6.65;;;3.90;99.90;;;;;;4862621;29;20064;-70
2022/11/22 02:45:29;;;;;;;16.58;6.63;;;4.00;99.90;;;;;;4877247;29;20057;-71
2022/11/22 02:48:06;;;;;;;18.85;7.75;;;3.90;99.90;;;;;;4878861;29;20052;-70
2022/11/22 02:50:32;;;;;;;17.15;6.68;;;3.90;99.90;;;;;;4894759;29;20507;-70
2022/11/22 02:52:58;;;;;;;17.17;7.05;;;4.00;99.90;;;;;;4892868;29;20057;-70
2022/11/22 02:55:23;;;;;;;16.33;7.78;;;3.90;99.90;;;;;;4895774;29;20052;-70
2022/11/22 02:57:49;;;;;;;21.42;7.40;;;3.90;99.90;;;;;;4890872;29;20049;-71
2022/11/22 03:00:15;;;;;;;18.88;7.20;;;4.00;99.90;;;;;;4877738;29;20056;-71
2022/11/22 03:02:41;;;;;;;15.90;6.70;;;3.90;99.90;;;;;;4877648;29;20057;-70
2022/11/22 03:05:07;;;;;;;14.65;6.53;;;4.00;99.90;;;;;;4891262;29;20071;-74
2022/11/22 03:07:32;;;;;;;15.93;6.63;;;4.00;99.90;;;;;;4881092;29;20053;-71
2022/11/22 03:09:58;;;;;;;22.90;7.60;;;4.00;99.90;;;;;;4887616;29;20052;-71
2022/11/22 03:12:24;;;;;;;17.60;7.25;;;4.20;99.90;;;;;;4895182;29;20059;-71
2022/11/22 03:14:49;;;;;;;15.90;6.63;;;4.20;99.90;;;;;;4891220;29;20053;-70
2022/11/22 03:17:15;;;;;;;17.73;6.55;;;4.10;99.90;;;;;;4876117;29;20156;-70
2022/11/22 03:19:41;;;;;;;19.73;6.65;;;4.40;99.90;;;;;;4877393;29;20120;-70
2022/11/22 03:22:07;;;;;;;24.75;6.90;;;4.20;99.90;;;;;;4876666;29;20153;-75
2022/11/22 03:24:32;;;;;;;16.90;7.10;;;4.20;99.90;;;;;;4887103;29;20059;-70
2022/11/22 03:26:58;;;;;;;17.98;6.68;;;4.40;99.90;;;;;;4896769;29;20093;-70
2022/11/22 03:29:24;;;;;;;15.60;6.07;;;4.30;99.90;;;;;;4896007;29;20104;-70
2022/11/22 03:31:49;;;;;;;15.55;6.10;;;4.30;99.90;;;;;;4895733;29;20055;-70
2022/11/22 03:34:15;;;;;;;13.60;6.60;;;4.30;99.90;;;;;;4893362;29;20219;-71
2022/11/22 03:36:41;;;;;;;16.45;6.90;;;4.30;99.90;;;;;;4896087;29;20053;-71
2022/11/22 03:39:07;;;;;;;16.70;5.47;;;4.40;99.90;;;;;;4896077;29;20052;-71
2022/11/22 03:41:32;;;;;;;15.18;6.20;;;4.40;99.90;;;;;;4896245;29;20497;-70
2022/11/22 03:43:58;;;;;;;18.58;6.53;;;4.40;99.90;;;;;;4891317;29;20057;-70
2022/11/22 03:46:24;;;;;;;13.00;5.50;;;4.40;99.90;;;;;;4876060;29;20055;-70
2022/11/22 03:48:49;;;;;;;12.88;5.65;;;4.40;99.90;;;;;;4876712;29;20068;-71
2022/11/22 03:51:15;;;;;;;16.63;6.45;;;4.40;99.90;;;;;;4890180;29;20265;-70
2022/11/22 03:53:41;;;;;;;18.38;6.00;;;4.40;99.90;;;;;;4879145;29;20111;-70
2022/11/22 03:56:06;;;;;;;13.65;5.72;;;4.40;99.90;;;;;;4876541;29;20057;-70
2022/11/22 03:58:33;;;;;;;17.20;6.15;;;4.40;99.90;;;;;;4877016;29;20052;-70
2022/11/22 04:00:58;;;;;;;;;;;4.40;99.90;;;;;;4877785;29;20110;-70
2022/11/22 04:03:24;;;;;;;16.38;6.85;;;4.50;99.90;;;;;;4877590;29;20475;-72
2022/11/22 04:05:50;;;;;;;;;;;4.50;99.90;;;;;;4879292;29;20512;-70
2022/11/22 04:08:16;;;;;;;14.95;6.07;;;4.70;99.90;;;;;;4876500;29;19928;-70
2022/11/22 04:10:42;;;;;;;14.98;6.28;;;4.50;99.90;;;;;;4877515;29;20407;-71
2022/11/22 04:13:07;;;;;;;14.07;6.22;;;4.50;99.90;;;;;;4894847;29;20052;-72
2022/11/22 04:15:33;;;;;;;18.63;5.97;;;4.50;99.90;;;;;;4894175;29;20139;-70
2022/11/22 04:17:59;;;;;;;15.88;5.88;;;4.60;99.90;;;;;;4895684;29;20061;-70
2022/11/22 04:23:13;;;;;;;;;;;4.60;99.90;;;;;;4891216;29;20068;-77
2022/11/22 04:25:45;;;;;;;12.27;5.68;;;4.60;99.90;;;;;;4866684;29;19924;-73
2022/11/22 04:28:12;;;;;;;19.27;6.13;;;4.60;99.90;;;;;;4902783;29;20577;-70
2022/11/22 04:33:23;;;;;;;15.63;6.32;;;4.60;99.90;;;;;;4891343;29;20060;-70
2022/11/22 04:35:49;;;;;;;13.88;5.90;;;4.70;99.90;;;;;;4884734;29;20084;-70
2022/11/22 04:38:16;;;;;;;14.73;6.28;;;4.70;99.90;;;;;;4876101;29;20127;-73
2022/11/22 04:40:42;;;;;;;18.95;7.00;;;4.60;99.90;;;;;;4883814;29;20052;-72
2022/11/22 04:46:06;;;;;;;15.52;6.95;;;4.70;99.90;;;;;;4894973;29;20120;-70
2022/11/22 04:48:33;;;;;;;12.65;5.35;;;4.70;99.90;;;;;;4894198;29;20071;-71
2022/11/22 04:53:43;;;;;;;12.40;5.82;;;4.70;99.90;;;;;;4890995;29;20022;-71
2022/11/22 04:56:10;;;;;;;18.58;5.78;;;4.70;99.90;;;;;;4879886;29;20483;-70
2022/11/22 04:58:35;;;;;;;;;;;4.80;99.90;;;;;;4875650;29;20138;-70
2022/11/22 05:01:01;;;;;;;13.40;5.38;;;4.70;99.90;;;;;;4876025;29;20390;-70
2022/11/22 05:03:27;;;;;;;15.63;5.50;;;4.90;99.90;;;;;;4893797;29;20447;-71
2022/11/22 05:05:52;;;;;;;11.35;5.40;;;4.80;99.90;;;;;;4892882;29;20053;-70
2022/11/22 05:08:19;;;;;;;11.10;5.32;;;4.80;99.90;;;;;;4892112;29;20048;-71
2022/11/22 05:10:56;;;;;;;12.40;5.53;;;5.00;99.90;;;;;;4894486;29;20100;-70
2022/11/22 05:13:34;;;;;;;15.57;6.35;;;4.80;99.90;;;;;;4893924;29;20060;-70
2022/11/22 05:16:02;;;;;;;16.23;5.82;;;4.90;99.90;;;;;;4895060;29;20060;-70
2022/11/22 05:18:28;;;;;;;12.80;5.55;;;4.80;99.90;;;;;;4892802;29;20194;-71
2022/11/22 05:20:54;;;;;;;11.95;5.78;;;4.90;99.90;;;;;;4889682;29;20085;-71
2022/11/22 05:26:06;;;;;;;12.63;5.65;;;4.90;99.90;;;;;;4876725;29;20068;-70
2022/11/22 05:28:33;;;;;;;;;;;4.90;99.90;;;;;;4888999;29;20063;-70
2022/11/22 05:30:58;;;;;;;14.00;5.50;;;4.90;99.90;;;;;;4907866;29;19962;-72
2022/11/22 05:33:24;;;;;;;10.52;5.40;;;4.90;99.90;;;;;;4896213;29;20088;-70
2022/11/22 05:35:50;;;;;;;18.48;5.32;;;4.90;99.90;;;;;;4893266;29;20084;-71
2022/11/22 05:38:16;;;;;;;13.30;5.60;;;4.90;99.90;;;;;;4887744;29;20519;-70
2022/11/22 05:40:42;;;;;;;14.95;6.03;;;4.90;99.90;;;;;;4898429;29;20056;-70
2022/11/22 05:43:07;;;;;;;16.90;5.80;;;5.20;99.90;;;;;;4898793;29;20091;-70
2022/11/22 05:45:33;;;;;;;13.55;5.90;;;4.90;99.90;;;;;;4892343;29;20061;-70
2022/11/22 05:47:59;;;;;;;12.88;5.75;;;5.00;99.90;;;;;;4886762;29;20060;-70
2022/11/22 05:50:25;;;;;;;12.75;6.43;;;5.00;99.90;;;;;;4896625;29;20060;-70
2022/11/22 05:52:51;;;;;;;14.60;5.85;;;5.00;99.90;;;;;;4895057;29;20455;-71
2022/11/22 05:55:16;;;;;;;16.15;6.78;;;5.10;99.90;;;;;;4893168;29;20079;-70
2022/11/22 05:57:42;;;;;;;13.90;6.20;;;5.10;99.90;;;;;;4881026;29;20478;-72
2022/11/22 06:00:08;;;;;;;20.52;6.20;;;5.10;99.90;;;;;;4894729;29;20106;-71
2022/11/22 06:02:34;;;;;;;13.80;6.18;;;5.10;99.90;;;;;;4878952;29;20053;-70
2022/11/22 06:04:59;;;;;;;11.88;5.60;;;5.10;99.90;;;;;;4892871;29;20120;-71
2022/11/22 06:07:25;;;;;;;17.08;6.63;;;5.20;99.90;;;;;;4878028;29;20132;-71
2022/11/22 06:09:51;;;;;;;16.63;6.50;;;5.10;99.90;;;;;;4886425;29;20044;-71
2022/11/22 06:12:16;;;;;;;17.08;6.18;;;5.20;99.90;;;;;;4897302;29;20054;-70
2022/11/22 06:14:44;;;;;;;15.85;5.68;;;5.30;99.90;;;;;;4892827;29;20199;-70
2022/11/22 06:17:09;;;;;;;16.33;6.25;;;5.20;99.90;;;;;;4879223;29;20053;-71
2022/11/22 06:19:35;;;;;;;15.43;5.85;;;5.20;99.90;;;;;;4876307;29;20656;-71
2022/11/22 06:22:01;;;;;;;16.27;6.50;;;5.20;99.90;;;;;;4886376;29;20109;-71
2022/11/22 06:24:26;;;;;;;14.40;6.65;;;5.30;99.90;;;;;;4880506;29;20132;-70
2022/11/22 06:26:52;;;;;;;15.20;5.97;;;5.30;99.90;;;;;;4898011;29;20499;-71
2022/11/22 06:29:18;;;;;;;13.43;5.88;;;5.30;99.90;;;;;;4895830;29;20049;-70
2022/11/22 06:31:43;;;;;;;18.00;6.40;;;5.40;99.90;;;;;;4892078;29;20116;-70
2022/11/22 06:34:12;;;;;;;16.90;5.75;;;5.30;99.90;;;;;;4876958;29;20057;-70
2022/11/22 06:36:38;;;;;;;19.45;6.07;;;5.30;99.90;;;;;;4877045;29;20065;-71
2022/11/22 06:39:04;;;;;;;15.05;5.72;;;5.30;99.90;;;;;;4877243;29;20496;-70
2022/11/22 06:41:31;;;;;;;;;;;5.30;99.90;;;;;;4895127;29;20519;-70
2022/11/22 06:43:57;;;;;;;14.55;6.28;;;5.40;99.90;;;;;;4896927;29;19927;-70
2022/11/22 06:46:25;;;;;;;13.65;5.05;;;5.30;99.90;;;;;;4896171;29;20067;-70
2022/11/22 06:48:51;;;;;;;14.32;6.07;;;5.40;99.90;;;;;;4897467;29;20084;-71
2022/11/22 06:51:18;;;;;;;;;;;5.30;99.90;;;;;;4890431;29;20064;-72
2022/11/22 06:53:45;;;;;;;17.90;5.38;;;5.30;99.90;;;;;;4896485;29;19973;-71
2022/11/22 06:56:18;;;;;;;12.77;5.43;;;5.40;99.90;;;;;;4897312;29;20044;-70
2022/11/22 06:58:44;;;;;;;17.67;6.15;;;5.40;99.90;;;;;;4894548;29;20091;-70
2022/11/22 07:01:13;;;;;;;15.07;5.68;;;5.40;99.90;;;;;;4896892;29;20048;-71
2022/11/22 07:03:39;;;;;;;14.02;5.28;;;5.40;99.90;;;;;;4895706;29;20625;-70
2022/11/22 07:06:07;;;;;;;17.20;6.20;;;5.30;99.90;;;;;;4894173;29;20410;-70
2022/11/22 07:08:33;;;;;;;22.50;6.38;;;5.30;99.90;;;;;;4895119;29;20554;-70
2022/11/22 07:11:03;;;;;;;;;;;5.40;99.90;;;;;;4896376;29;20052;-73
2022/11/22 07:13:29;;;;;;;16.35;5.43;;;5.30;99.90;;;;;;4894926;29;19975;-76
2022/11/22 07:15:56;;;;;;;14.00;5.28;;;5.30;99.90;;;;;;4896991;29;20143;-68
2022/11/22 07:18:22;;;;;;;20.48;4.88;;;5.30;99.90;;;;;;4896411;29;20065;-74
2022/11/22 07:20:47;;;;;;;13.15;4.55;;;5.30;99.90;;;;;;4895131;29;20238;-74
2022/11/22 07:23:14;;;;;;;16.23;5.30;;;5.40;99.90;;;;;;4879966;29;20486;-73
2022/11/22 07:25:47;;;;;;;14.15;4.43;;;5.30;99.90;;;;;;4895493;29;20132;-71
2022/11/22 07:28:14;;;;;;;10.65;4.40;;;5.40;99.90;;;;;;4911107;29;20506;-72
2022/11/22 07:30:40;;;;;;;11.48;4.25;;;5.40;99.90;;;;;;4895879;29;20071;-72
2022/11/22 07:33:07;;;;;;;12.32;3.42;;;5.40;99.90;;;;;;4893929;29;20189;-72
2022/11/22 07:35:33;;;;;;;16.33;4.00;;;5.50;99.90;;;;;;4894591;29;20060;-71
2022/11/22 07:37:59;;;;;;;13.00;3.70;;;5.50;99.90;;;;;;4890552;29;20045;-71
2022/11/22 07:40:24;;;;;;;12.27;3.65;;;5.50;99.90;;;;;;4896656;29;20067;-71
2022/11/22 07:42:50;;;;;;;13.70;3.05;;;5.60;99.90;;;;;;4894657;29;20131;-71
2022/11/22 07:45:16;;;;;;;13.75;2.83;;;5.60;99.90;;;;;;4895910;29;20193;-73
2022/11/22 07:47:41;;;;;;;14.80;3.17;;;5.50;99.90;;;;;;4895947;29;20048;-71
2022/11/22 07:50:08;;;;;;;9.90;2.25;;;5.60;99.90;;;;;;4894909;29;20349;-71
2022/11/22 07:52:33;;;;;;;13.88;2.97;;;5.50;99.90;;;;;;4894398;29;20135;-75
2022/11/22 07:54:59;;;;;;;10.70;3.13;;;5.50;99.90;;;;;;4879752;29;20247;-71
2022/11/22 07:57:25;;;;;;;10.57;2.92;;;5.50;99.90;;;;;;4894846;29;20049;-72
2022/11/22 07:59:50;;;;;;;6.43;2.45;;;5.40;99.90;;;;;;4895586;29;20108;-72
2022/11/22 08:02:16;;;;;;;10.13;2.45;;;5.40;99.90;;;;;;4893632;29;20120;-71
2022/11/22 08:04:42;;;;;;;7.70;2.25;;;5.40;99.90;;;;;;4890467;29;20157;-71
2022/11/22 08:07:08;;;;;;;7.05;2.25;;;5.60;99.90;;;;;;4891389;29;20052;-70
2022/11/22 08:09:34;;;;;;;9.25;2.13;;;5.40;99.90;;;;;;4884602;29;20056;-72
2022/11/22 08:12:00;;;;;;;;;;;5.40;99.90;;;;;;4895080;29;20049;-71
2022/11/22 08:14:25;;;;;;;12.20;2.40;;;5.50;99.90;;;;;;4879219;29;19950;-72
2022/11/22 08:16:51;;;;;;;7.55;2.05;;;5.60;99.90;;;;;;4875772;29;20056;-69
2022/11/22 08:19:17;;;;;;;8.60;2.10;;;5.80;99.90;;;;;;4883370;29;20117;-70
2022/11/22 08:21:48;;;;;;;12.48;3.38;;;5.90;99.90;;;;;;4884415;29;20075;-79
2022/11/22 08:24:14;;;;;;;10.38;2.30;;;6.00;99.90;;;;;;4892013;29;20058;-77
2022/11/22 08:26:40;;;;;;;6.00;2.08;;;6.00;99.90;;;;;;4877309;29;21350;-77
2022/11/22 08:29:07;;;;;;;7.97;1.80;;;6.00;99.90;;;;;;4893062;29;20068;-78
2022/11/22 08:31:34;;;;;;;7.95;1.83;;;6.00;99.90;;;;;;4878249;29;20395;-77
2022/11/22 08:34:00;;;;;;;7.50;1.92;;;6.10;99.90;;;;;;4892696;29;20128;-77
2022/11/22 08:36:26;;;;;;;7.05;2.53;;;6.10;99.90;;;;;;4892583;29;20056;-77
2022/11/22 08:38:52;;;;;;;6.07;2.45;;;6.10;99.90;;;;;;4873633;29;20483;-76
2022/11/22 08:41:17;;;;;;;7.47;2.03;;;6.20;99.90;;;;;;4886106;29;20116;-76
2022/11/22 08:43:43;;;;;;;6.70;2.10;;;6.10;99.90;;;;;;4885766;29;20578;-76
2022/11/22 08:46:09;;;;;;;9.38;2.90;;;6.00;99.90;;;;;;4890663;29;20053;-75
2022/11/22 08:48:37;;;;;;;16.52;1.88;;;6.00;99.90;;;;;;4895617;29;20693;-73
2022/11/22 08:51:08;;;;;;;6.95;1.90;;;5.90;99.90;;;;;;4892850;29;20084;-74
2022/11/22 08:53:36;;;;;;;8.30;1.98;;;5.90;99.90;;;;;;4893381;29;20111;-76
2022/11/22 08:56:04;;;;;;;9.50;1.80;;;6.00;99.90;;;;;;4890037;29;20088;-73
2022/11/22 08:58:33;;;;;;;6.15;1.95;;;5.90;99.90;;;;;;4886743;29;20451;-72
2022/11/22 09:01:10;;;;;;;8.13;2.05;;;5.90;99.90;;;;;;4893627;29;20064;-74
2022/11/22 09:03:36;;;;;;;5.82;1.80;;;6.00;99.90;;;;;;4893544;29;20064;-71
2022/11/22 09:06:11;;;;;;;7.53;1.95;;;6.10;99.90;;;;;;4889599;29;20073;-73
2022/11/22 09:08:36;;;;;;;6.78;2.30;;;6.10;99.90;;;;;;4897046;29;20054;-73
2022/11/22 09:11:05;;;;;;;7.30;1.80;;;6.10;99.90;;;;;;4910464;29;20137;-75
2022/11/22 09:13:31;;;;;;;12.77;2.20;;;6.20;99.90;;;;;;4891711;29;20104;-75
2022/11/22 09:16:05;;;;;;;11.50;2.63;;;6.20;99.90;;;;;;4896679;29;20084;-75
2022/11/22 09:18:31;;;;;;;9.27;2.50;;;6.20;99.90;;;;;;4893345;29;20072;-74
2022/11/22 09:21:01;;;;;;;8.07;2.30;;;6.30;99.90;;;;;;4886832;29;20061;-74
2022/11/22 09:23:27;;;;;;;11.02;2.28;;;6.30;99.90;;;;;;4897429;29;20056;-73
2022/11/22 09:26:05;;;;;;;10.43;3.00;;;6.30;99.90;;;;;;4890628;29;20571;-71
2022/11/22 09:28:31;;;;;;;8.38;2.00;;;6.40;99.90;;;;;;4896966;29;20092;-72
2022/11/22 09:31:02;;;;;;;8.20;1.98;;;6.50;99.90;;;;;;4893015;29;20053;-72
2022/11/22 09:33:30;;;;;;;11.88;1.70;;;6.50;99.90;;;;;;4883454;29;20061;-70
2022/11/22 09:36:20;;;;;;;9.55;1.90;;;6.60;99.90;;;;;;4889666;29;20053;-69
2022/11/22 09:38:46;;;;;;;6.97;1.67;;;6.60;99.90;;;;;;4905740;29;20753;-72
2022/11/22 09:41:14;;;;;;;;;;;6.70;99.90;;;;;;4898226;29;20147;-72
2022/11/22 09:43:54;;;;;;;8.93;2.30;;;6.70;99.90;;;;;;4897900;29;20072;-72
2022/11/22 09:46:34;;;;;;;12.35;2.53;;;6.70;99.90;;;;;;4895791;29;20056;-71
2022/11/22 09:49:40;;;;;;;10.80;2.38;;;6.70;99.90;;;;;;4896745;29;20128;-72
2022/11/22 09:52:24;;;;;;;6.35;2.25;;;6.70;99.90;;;;;;4888736;29;20091;-72
2022/11/22 09:54:54;;;;;;;9.10;1.95;;;6.70;99.90;;;;;;4894110;29;20083;-72
2022/11/22 09:57:43;;;;;;;7.47;1.70;;;6.80;99.90;;;;;;4890480;29;20049;-71
2022/11/22 10:00:17;;;;;;;7.57;2.08;;;6.80;99.90;;;;;;4896688;29;20625;-71
2022/11/22 10:03:09;;;;;;;6.00;1.88;;;6.80;99.90;;;;;;4897824;29;20403;-71
2022/11/22 10:05:52;;;;;;;11.73;2.40;;;6.80;99.90;;;;;;4894932;29;20151;-71
2022/11/22 10:08:35;;;;;;;15.88;3.13;;;6.80;99.90;;;;;;4897207;29;20052;-71
2022/11/22 10:11:08;;;;;;;8.88;1.58;;;6.80;99.90;;;;;;4882535;29;20087;-72
2022/11/22 10:13:49;;;;;;;6.10;1.98;;;6.80;99.90;;;;;;4897783;29;20056;-71
2022/11/22 10:16:33;;;;;;;17.90;2.42;;;6.80;99.90;;;;;;4893653;29;20044;-71
2022/11/22 10:19:19;;;;;;;9.52;1.42;;;6.80;99.90;;;;;;4894839;29;20064;-71
2022/11/22 10:21:46;;;;;;;10.43;2.03;;;6.90;99.90;;;;;;4897087;29;20148;-71
2022/11/22 10:24:15;;;;;;;6.78;1.60;;;7.00;99.90;;;;;;4888831;29;20063;-72
2022/11/22 10:26:42;;;;;;;3.15;1.65;;;7.00;99.90;;;;;;4896644;29;20080;-71
2022/11/22 10:29:32;;;;;;;6.88;1.58;;;7.10;99.90;;;;;;4895935;29;20111;-72
2022/11/22 10:32:33;;;;;;;7.85;2.50;;;7.10;99.90;;;;;;4896092;29;20048;-72
2022/11/22 10:35:33;;;;;;;5.90;1.85;;;7.20;99.90;;;;;;4888690;29;20060;-74
2022/11/22 10:38:08;;;;;;;8.20;1.70;;;7.30;99.90;;;;;;4886690;29;20033;-73
2022/11/22 10:40:49;;;;;;;11.23;2.00;;;7.40;99.90;;;;;;4892325;29;20052;-73
2022/11/22 10:43:36;;;;;;;10.18;2.13;;;7.60;99.90;;;;;;4876962;29;20060;-72
2022/11/22 10:46:33;;;;;;;3.92;1.50;;;7.90;99.90;;;;;;4887813;29;20062;-73
2022/11/22 10:49:36;;;;;;;7.22;3.40;;;7.90;99.90;;;;;;4888692;29;20113;-73
2022/11/22 10:52:29;;;;;;;7.45;1.63;;;7.80;99.90;;;;;;4890646;29;20044;-72
2022/11/22 10:55:33;;;;;;;7.13;1.55;;;7.90;99.90;;;;;;4894960;29;20140;-73
2022/11/22 10:58:24;;;;;;;5.18;1.55;;;8.00;99.90;;;;;;4889094;29;20091;-73
2022/11/22 11:01:05;;;;;;;6.22;1.65;;;7.90;99.90;;;;;;4891150;29;20061;-72
2022/11/22 11:03:32;;;;;;;9.15;1.83;;;8.10;99.90;;;;;;4895978;29;20147;-73
2022/11/22 11:06:34;;;;;;;3.00;1.50;;;8.50;99.90;;;;;;4890969;29;20061;-74
2022/11/22 11:09:07;;;;;;;4.97;1.50;;;8.40;99.90;;;;;;4892696;29;20675;-74
2022/11/22 11:11:35;;;;;;;7.65;1.52;;;8.30;99.90;;;;;;4893979;29;20048;-73
2022/11/22 11:14:14;;;;;;;6.45;1.27;;;8.20;99.90;;;;;;4892510;29;20533;-75
2022/11/22 11:16:40;;;;;;;6.95;2.10;;;8.10;99.90;;;;;;4893931;29;20119;-74
2022/11/22 11:19:25;;;;;;;4.43;1.40;;;8.10;99.90;;;;;;4891920;29;20570;-73
2022/11/22 11:22:06;;;;;;;6.97;1.45;;;8.00;99.90;;;;;;4884331;29;20431;-74
2022/11/22 11:24:36;;;;;;;8.70;1.58;;;8.00;99.90;;;;;;4894943;29;20052;-76
2022/11/22 11:27:02;;;;;;;8.52;1.73;;;8.10;99.90;;;;;;4895487;29;20060;-75
2022/11/22 11:29:32;;;;;;;2.58;1.20;;;8.20;99.90;;;;;;4894302;29;20063;-73
2022/11/22 11:32:10;;;;;;;3.53;1.00;;;8.20;99.90;;;;;;4895233;29;20055;-74
2022/11/22 11:34:39;;;;;;;7.13;1.60;;;8.20;99.90;;;;;;4883469;29;20058;-74
2022/11/22 11:37:35;;;;;;;6.40;1.35;;;8.20;99.90;;;;;;4895016;29;20084;-73
2022/11/22 11:40:05;;;;;;;7.43;1.80;;;8.10;99.90;;;;;;4890560;29;20052;-74
2022/11/22 11:42:33;;;;;;;4.63;1.95;;;8.10;99.90;;;;;;4896199;29;20087;-73
2022/11/22 11:45:26;;;;;;;3.78;1.50;;;8.00;99.90;;;;;;4895926;29;20586;-73
2022/11/22 11:47:52;;;;;;;4.38;1.45;;;8.00;99.90;;;;;;4896019;29;20053;-74
2022/11/22 11:50:20;;;;;;;4.45;1.35;;;8.10;99.90;;;;;;4908902;29;20455;-74
2022/11/22 11:52:54;;;;;;;5.20;1.85;;;8.00;99.90;;;;;;4895781;29;20474;-73
2022/11/22 11:55:20;;;;;;;7.43;1.58;;;7.90;99.90;;;;;;4887966;29;20064;-72
2022/11/22 11:57:47;;;;;;;4.90;1.38;;;7.90;99.90;;;;;;4895901;29;20052;-74
2022/11/22 12:00:24;;;;;;;8.25;1.50;;;7.90;99.90;;;;;;4894080;29;20060;-74
2022/11/22 12:02:57;;;;;;;7.70;1.85;;;7.90;99.90;;;;;;4892874;29;20407;-74
2022/11/22 12:05:29;;;;;;;2.38;1.30;;;8.00;99.90;;;;;;4885769;29;20075;-74
2022/11/22 12:07:55;;;;;;;4.32;1.42;;;8.00;99.90;;;;;;4894250;29;20063;-73
2022/11/22 12:10:37;;;;;;;6.10;1.70;;;8.00;99.90;;;;;;4893272;29;20680;-74
2022/11/22 12:13:15;;;;;;;7.38;2.45;;;8.00;99.90;;;;;;4894757;29;20064;-74
2022/11/22 12:16:07;;;;;;;8.45;1.55;;;8.00;99.90;;;;;;4891407;29;20406;-73
2022/11/22 12:18:57;;;;;;;8.60;1.38;;;8.00;99.90;;;;;;4873608;29;20060;-74
2022/11/22 12:21:46;;;;;;;5.25;1.50;;;8.00;99.90;;;;;;4889752;29;20154;-74
2022/11/22 12:24:18;;;;;;;1.95;1.05;;;8.00;99.90;;;;;;4892654;29;20052;-74
2022/11/22 12:26:44;;;;;;;4.70;1.33;;;8.10;99.90;;;;;;4886262;29;20087;-74
2022/11/22 12:29:12;;;;;;;7.45;1.38;;;8.10;99.90;;;;;;4888423;29;20113;-74
2022/11/22 12:31:44;;;;;;;7.30;1.70;;;8.20;99.90;;;;;;4890784;29;20482;-75
2022/11/22 12:34:34;;;;;;;5.50;1.38;;;8.20;99.90;;;;;;4883657;29;20044;-75
2022/11/22 12:37:16;;;;;;;4.90;1.52;;;8.20;99.90;;;;;;4889744;29;20037;-74
2022/11/22 12:39:47;;;;;;;6.85;1.30;;;8.10;99.90;;;;;;4889008;29;20073;-74
2022/11/22 12:42:47;;;;;;;4.45;1.10;;;8.10;99.90;;;;;;4889481;29;20403;-74
2022/11/22 12:45:41;;;;;;;4.10;1.23;;;8.10;99.90;;;;;;4889946;29;20577;-75
2022/11/22 12:48:27;;;;;;;4.88;1.42;;;8.00;99.90;;;;;;4883283;29;20483;-74
2022/11/22 12:50:56;;;;;;;2.67;0.90;;;8.00;99.90;;;;;;4892330;29;20036;-74
2022/11/22 12:53:37;;;;;;;8.25;1.92;;;8.00;99.90;;;;;;4894192;29;20036;-74
2022/11/22 12:56:08;;;;;;;3.90;1.25;;;7.90;99.90;;;;;;4887388;29;20060;-74
2022/11/22 12:58:49;;;;;;;2.25;0.90;;;7.80;99.90;;;;;;4889509;29;20503;-74
2022/11/22 13:01:31;;;;;;;3.83;1.10;;;7.80;99.90;;;;;;4880850;29;20060;-74
2022/11/22 13:04:09;;;;;;;2.13;0.88;;;7.80;99.90;;;;;;4890494;29;20132;-74
2022/11/22 13:06:50;;;;;;;5.35;1.00;;;7.80;99.90;;;;;;4869689;29;20056;-74
2022/11/22 13:09:41;;;;;;;4.57;0.93;;;7.80;99.90;;;;;;4890103;29;20525;-74
2022/11/22 13:12:27;;;;;;;1.90;1.13;;;7.80;99.90;;;;;;4889772;29;20044;-75
2022/11/22 13:14:54;;;;;;;2.47;0.65;;;7.80;99.90;;;;;;4888739;29;20398;-74
2022/11/22 13:17:23;;;;;;;2.20;0.95;;;7.90;99.90;;;;;;4885725;29;20088;-74
2022/11/22 13:19:57;;;;;;;3.75;0.90;;;7.80;99.90;;;;;;4885625;29;20056;-74
2022/11/22 13:22:30;;;;;;;3.30;1.15;;;7.80;99.90;;;;;;4890240;29;20408;-74
2022/11/22 13:25:02;;;;;;;2.95;0.80;;;7.80;99.90;;;;;;4889500;29;20383;-74